createdAt,value
2018-04-17T00:00:05.691Z,9.7
2018-04-17T00:01:08.857Z,9.8
2018-04-17T00:02:11.495Z,9.6
2018-04-17T00:03:13.896Z,9.6
2018-04-17T00:04:16.267Z,9.4
2018-04-17T00:05:18.655Z,9.5
2018-04-17T00:06:21.171Z,9.5
2018-04-17T00:07:23.553Z,9.6
2018-04-17T00:08:25.934Z,9.6
2018-04-17T00:09:28.867Z,9.6
2018-04-17T00:10:31.655Z,9.7
2018-04-17T00:11:34.049Z,9.7
2018-04-17T00:12:36.714Z,9.7
2018-04-17T00:13:39.124Z,9.7
2018-04-17T00:14:41.528Z,9.6
2018-04-17T00:15:44.006Z,9.6
2018-04-17T00:16:46.399Z,9.5
2018-04-17T00:17:48.773Z,9.6
2018-04-17T00:18:51.590Z,9.6
2018-04-17T00:19:54.255Z,9.6
2018-04-17T00:20:56.921Z,9.5
2018-04-17T00:21:59.493Z,9.5
2018-04-17T00:23:01.867Z,9.6
2018-04-17T00:24:04.269Z,9.6
2018-04-17T00:25:06.774Z,9.6
2018-04-17T00:26:09.664Z,9.6
2018-04-17T00:27:12.337Z,9.6
2018-04-17T00:28:15.336Z,9.5
2018-04-17T00:29:18.286Z,9.5
2018-04-17T00:30:20.976Z,9.5
2018-04-17T00:31:24.206Z,9.5
2018-04-17T00:32:26.659Z,9.6
2018-04-17T00:33:28.991Z,9.6
2018-04-17T00:34:31.871Z,9.6
2018-04-17T00:35:34.250Z,9.6
2018-04-17T00:36:36.653Z,9.6
2018-04-17T00:37:39.200Z,9.6
2018-04-17T00:38:41.584Z,9.7
2018-04-17T00:39:44.555Z,9.7
2018-04-17T00:40:47.207Z,9.7
2018-04-17T00:41:49.588Z,9.7
2018-04-17T00:42:51.959Z,9.6
2018-04-17T00:43:54.335Z,9.5
2018-04-17T00:44:57.339Z,9.5
2018-04-17T00:45:59.724Z,9.6
2018-04-17T00:47:02.236Z,9.6
2018-04-17T00:48:05.115Z,9.5
2018-04-17T00:49:07.503Z,9.6
2018-04-17T00:50:10.040Z,9.7
2018-04-17T00:51:12.843Z,9.6
2018-04-17T00:52:15.219Z,9.6
2018-04-17T00:53:17.609Z,9.3
2018-04-17T00:54:20.312Z,9.4
2018-04-17T00:55:22.687Z,9.5
2018-04-17T00:56:25.374Z,9.4
2018-04-17T00:57:28.354Z,9.5
2018-04-17T00:58:31.007Z,9.3
2018-04-17T00:59:33.388Z,9.5
2018-04-17T01:00:36.394Z,9.5
2018-04-17T01:01:38.768Z,9.6
2018-04-17T01:02:41.156Z,9.6
2018-04-17T01:03:43.768Z,9.7
2018-04-17T01:04:46.147Z,9.6
2018-04-17T01:05:48.535Z,9.7
2018-04-17T01:06:51.259Z,9.6
2018-04-17T01:07:53.637Z,9.7
2018-04-17T01:08:56.685Z,9.6
2018-04-17T01:09:59.485Z,9.6
2018-04-17T01:11:01.873Z,9.6
2018-04-17T01:12:04.254Z,9.6
2018-04-17T01:13:06.910Z,9.6
2018-04-17T01:14:09.856Z,9.6
2018-04-17T01:15:12.232Z,9.6
2018-04-17T01:16:14.998Z,9.6
2018-04-17T01:17:17.387Z,9.6
2018-04-17T01:18:19.777Z,9.6
2018-04-17T01:19:22.477Z,9.6
2018-04-17T01:20:24.875Z,9.4
2018-04-17T01:21:27.254Z,9.4
2018-04-17T01:22:29.916Z,9.2
2018-04-17T01:23:32.276Z,9.3
2018-04-17T01:24:34.675Z,9.2
2018-04-17T01:25:37.050Z,9.3
2018-04-17T01:26:39.437Z,9.1
2018-04-17T01:27:41.817Z,9.3
2018-04-17T01:28:44.200Z,9.2
2018-04-17T01:29:46.736Z,9.2
2018-04-17T01:30:49.120Z,9.2
2018-04-17T01:31:51.497Z,9.2
2018-04-17T01:32:53.987Z,9.1
2018-04-17T01:33:56.376Z,9.2
2018-04-17T01:34:58.783Z,9.1
2018-04-17T01:36:01.146Z,9.1
2018-04-17T01:37:04.089Z,9
2018-04-17T01:38:06.487Z,9
2018-04-17T01:39:09.642Z,9.1
2018-04-17T01:40:12.016Z,9.1
2018-04-17T01:41:14.405Z,9.2
2018-04-17T01:42:16.791Z,9.2
2018-04-17T01:43:19.486Z,9.2
2018-04-17T01:44:21.872Z,9.2
2018-04-17T01:45:24.242Z,9.2
2018-04-17T01:46:26.664Z,9.2
2018-04-17T01:47:29.211Z,9.2
2018-04-17T01:48:31.579Z,9.2
2018-04-17T01:49:34.257Z,9.1
2018-04-17T01:50:36.641Z,9.1
2018-04-17T01:51:39.316Z,9
2018-04-17T01:52:41.701Z,8.9
2018-04-17T01:53:44.656Z,9
2018-04-17T01:54:47.034Z,9
2018-04-17T01:55:49.417Z,9
2018-04-17T01:56:51.802Z,9
2018-04-17T01:57:54.169Z,8.9
2018-04-17T01:58:56.562Z,8.9
2018-04-17T01:59:58.939Z,8.7
2018-04-17T02:01:01.330Z,8.7
2018-04-17T02:02:03.716Z,8.7
2018-04-17T02:03:06.110Z,8.6
2018-04-17T02:04:08.771Z,8.7
2018-04-17T02:05:11.158Z,8.7
2018-04-17T02:06:13.530Z,8.7
2018-04-17T02:07:15.914Z,8.7
2018-04-17T02:08:18.574Z,8.7
2018-04-17T02:09:21.245Z,8.6
2018-04-17T02:10:23.619Z,8.5
2018-04-17T02:11:25.999Z,8.5
2018-04-17T02:12:28.392Z,8.4
2018-04-17T02:13:31.054Z,8.4
2018-04-17T02:14:33.715Z,8.3
2018-04-17T02:15:36.106Z,8.4
2018-04-17T02:16:38.781Z,8.5
2018-04-17T02:17:41.542Z,8.5
2018-04-17T02:18:44.314Z,8.6
2018-04-17T02:19:46.685Z,8.8
2018-04-17T02:20:49.078Z,8.7
2018-04-17T02:21:51.474Z,8.7
2018-04-17T02:22:53.850Z,8.7
2018-04-17T02:23:56.624Z,8.5
2018-04-17T02:24:59.004Z,8.5
2018-04-17T02:26:01.371Z,8.4
2018-04-17T02:27:04.048Z,8.4
2018-04-17T02:28:06.437Z,8.4
2018-04-17T02:29:08.815Z,8.4
2018-04-17T02:30:11.485Z,8.5
2018-04-17T02:31:13.871Z,8.5
2018-04-17T02:32:16.815Z,8.5
2018-04-17T02:33:19.222Z,8.5
2018-04-17T02:34:21.603Z,8.5
2018-04-17T02:35:23.999Z,8.5
2018-04-17T02:36:26.384Z,8.5
2018-04-17T02:37:28.764Z,8.5
2018-04-17T02:38:31.420Z,8.6
2018-04-17T02:39:34.656Z,8.5
2018-04-17T02:40:37.327Z,8.6
2018-04-17T02:41:39.720Z,8.7
2018-04-17T02:42:42.480Z,8.8
2018-04-17T02:43:45.145Z,8.8
2018-04-17T02:44:47.522Z,8.7
2018-04-17T02:45:49.918Z,8.7
2018-04-17T02:46:52.290Z,8.8
2018-04-17T02:47:54.958Z,8.7
2018-04-17T02:48:57.614Z,8.7
2018-04-17T02:49:59.995Z,8.6
2018-04-17T02:51:03.049Z,8.6
2018-04-17T02:52:05.431Z,8.6
2018-04-17T02:53:07.819Z,8.6
2018-04-17T02:54:10.490Z,8.5
2018-04-17T02:55:12.891Z,8.5
2018-04-17T02:56:15.555Z,8.5
2018-04-17T02:57:18.527Z,8.4
2018-04-17T02:58:21.413Z,8.4
2018-04-17T02:59:23.811Z,8.4
2018-04-17T03:00:26.573Z,8.4
2018-04-17T03:01:28.958Z,8.4
2018-04-17T03:02:31.345Z,8.3
2018-04-17T03:03:34.381Z,8.3
2018-04-17T03:04:36.775Z,8.2
2018-04-17T03:05:39.435Z,8.2
2018-04-17T03:06:41.807Z,8.1
2018-04-17T03:07:44.765Z,8.1
2018-04-17T03:08:47.157Z,8
2018-04-17T03:09:49.533Z,8
2018-04-17T03:10:51.926Z,8
2018-04-17T03:11:54.295Z,8
2018-04-17T03:12:56.683Z,8
2018-04-17T03:13:59.065Z,7.9
2018-04-17T03:15:01.437Z,7.9
2018-04-17T03:16:04.207Z,7.9
2018-04-17T03:17:06.968Z,7.9
2018-04-17T03:18:09.342Z,7.8
2018-04-17T03:19:11.732Z,7.8
2018-04-17T03:20:14.398Z,7.8
2018-04-17T03:21:16.787Z,7.7
2018-04-17T03:22:19.173Z,7.7
2018-04-17T03:23:21.542Z,7.7
2018-04-17T03:24:23.934Z,7.7
2018-04-17T03:25:26.314Z,7.6
2018-04-17T03:26:28.698Z,7.6
2018-04-17T03:27:31.084Z,7.6
2018-04-17T03:28:33.465Z,7.5
2018-04-17T03:29:35.838Z,7.6
2018-04-17T03:30:38.237Z,7.6
2018-04-17T03:31:40.890Z,7.5
2018-04-17T03:32:43.543Z,7.5
2018-04-17T03:33:45.915Z,7.5
2018-04-17T03:34:48.292Z,7.5
2018-04-17T03:35:50.672Z,7.5
2018-04-17T03:36:53.058Z,7.5
2018-04-17T03:37:55.461Z,7.4
2018-04-17T03:38:57.838Z,7.4
2018-04-17T03:40:00.238Z,7.4
2018-04-17T03:41:02.896Z,7.4
2018-04-17T03:42:05.279Z,7.4
2018-04-17T03:43:07.929Z,7.4
2018-04-17T03:44:10.312Z,7.4
2018-04-17T03:45:12.971Z,7.4
2018-04-17T03:46:15.350Z,7.5
2018-04-17T03:47:17.737Z,7.3
2018-04-17T03:48:20.120Z,7.3
2018-04-17T03:49:22.502Z,7.3
2018-04-17T03:50:24.887Z,7.3
2018-04-17T03:51:27.598Z,7.3
2018-04-17T03:52:29.989Z,7.2
2018-04-17T03:53:32.371Z,7.2
2018-04-17T03:54:34.741Z,7.2
2018-04-17T03:55:37.403Z,7.1
2018-04-17T03:56:40.074Z,7.1
2018-04-17T03:57:42.452Z,7.1
2018-04-17T03:58:44.827Z,7.1
2018-04-17T03:59:47.211Z,7.1
2018-04-17T04:00:49.589Z,7.1
2018-04-17T04:01:51.979Z,7.1
2018-04-17T04:02:54.358Z,7.1
2018-04-17T04:03:56.735Z,7.1
2018-04-17T04:04:59.110Z,7.1
2018-04-17T04:06:01.497Z,7.1
2018-04-17T04:07:04.167Z,7
2018-04-17T04:08:06.935Z,7
2018-04-17T04:09:09.312Z,7
2018-04-17T04:10:11.693Z,6.9
2018-04-17T04:11:14.063Z,6.9
2018-04-17T04:12:16.447Z,6.9
2018-04-17T04:13:18.825Z,6.9
2018-04-17T04:14:21.209Z,6.9
2018-04-17T04:15:23.994Z,6.9
2018-04-17T04:16:26.378Z,6.8
2018-04-17T04:17:29.065Z,6.8
2018-04-17T04:18:31.842Z,6.8
2018-04-17T04:19:34.609Z,6.8
2018-04-17T04:20:36.986Z,6.8
2018-04-17T04:21:39.373Z,6.8
2018-04-17T04:22:41.757Z,6.8
2018-04-17T04:23:44.141Z,6.7
2018-04-17T04:24:46.522Z,6.7
2018-04-17T04:25:48.892Z,6.7
2018-04-17T04:26:51.267Z,6.6
2018-04-17T04:27:53.660Z,6.6
2018-04-17T04:28:56.022Z,6.6
2018-04-17T04:29:58.401Z,6.6
2018-04-17T04:31:00.786Z,6.6
2018-04-17T04:32:03.162Z,6.6
2018-04-17T04:33:05.537Z,6.6
2018-04-17T04:34:08.206Z,6.6
2018-04-17T04:35:10.572Z,6.6
2018-04-17T04:36:12.963Z,6.7
2018-04-17T04:37:15.619Z,6.6
2018-04-17T04:38:17.991Z,6.6
2018-04-17T04:39:20.371Z,6.6
2018-04-17T04:40:22.747Z,6.5
2018-04-17T04:41:25.124Z,6.5
2018-04-17T04:42:27.486Z,6.5
2018-04-17T04:43:29.879Z,6.5
2018-04-17T04:44:32.270Z,6.6
2018-04-17T04:45:34.656Z,6.6
2018-04-17T04:46:37.041Z,6.6
2018-04-17T04:47:39.413Z,6.6
2018-04-17T04:48:42.069Z,6.6
2018-04-17T04:49:44.452Z,6.6
2018-04-17T04:50:46.825Z,6.6
2018-04-17T04:51:49.474Z,6.6
2018-04-17T04:52:51.859Z,6.6
2018-04-17T04:53:54.524Z,6.6
2018-04-17T04:54:57.288Z,6.6
2018-04-17T04:55:59.672Z,6.6
2018-04-17T04:57:02.431Z,6.6
2018-04-17T04:58:05.103Z,6.6
2018-04-17T04:59:07.770Z,6.6
2018-04-17T05:00:10.150Z,6.6
2018-04-17T05:01:12.547Z,6.6
2018-04-17T05:02:14.920Z,6.6
2018-04-17T05:03:17.677Z,6.6
2018-04-17T05:04:20.345Z,6.6
2018-04-17T05:05:23.393Z,6.6
2018-04-17T05:06:25.772Z,6.6
2018-04-17T05:07:28.440Z,6.6
2018-04-17T05:08:30.807Z,6.6
2018-04-17T05:09:33.188Z,6.6
2018-04-17T05:10:35.846Z,6.6
2018-04-17T05:11:38.225Z,6.6
2018-04-17T05:12:40.599Z,6.7
2018-04-17T05:13:43.643Z,6.8
2018-04-17T05:14:46.307Z,6.8
2018-04-17T05:15:48.972Z,6.8
2018-04-17T05:16:51.345Z,6.8
2018-04-17T05:17:53.731Z,6.8
2018-04-17T05:18:56.108Z,6.8
2018-04-17T05:19:58.794Z,6.9
2018-04-17T05:21:01.171Z,6.9
2018-04-17T05:22:03.551Z,6.9
2018-04-17T05:23:06.313Z,7
2018-04-17T05:24:08.981Z,7
2018-04-17T05:25:11.356Z,7.1
2018-04-17T05:26:13.740Z,7.3
2018-04-17T05:27:16.496Z,7.2
2018-04-17T05:28:18.874Z,7.2
2018-04-17T05:29:21.265Z,7.4
2018-04-17T05:30:23.647Z,7.3
2018-04-17T05:31:26.301Z,7.4
2018-04-17T05:32:28.677Z,7.4
2018-04-17T05:33:31.056Z,7.4
2018-04-17T05:34:33.456Z,7.4
2018-04-17T05:35:35.842Z,7.4
2018-04-17T05:36:38.497Z,7.4
2018-04-17T05:37:40.875Z,7.4
2018-04-17T05:38:43.262Z,7.5
2018-04-17T05:39:45.653Z,7.5
2018-04-17T05:40:48.474Z,7.6
2018-04-17T05:41:50.958Z,7.6
2018-04-17T05:42:53.329Z,7.7
2018-04-17T05:43:55.720Z,7.7
2018-04-17T05:44:58.099Z,7.7
2018-04-17T05:46:00.483Z,7.8
2018-04-17T05:47:02.858Z,7.9
2018-04-17T05:48:05.616Z,8
2018-04-17T05:49:08.276Z,8.1
2018-04-17T05:50:11.069Z,8.1
2018-04-17T05:51:13.764Z,8.1
2018-04-17T05:52:16.148Z,8.2
2018-04-17T05:53:18.838Z,8.2
2018-04-17T05:54:21.215Z,8.2
2018-04-17T05:55:23.594Z,8.3
2018-04-17T05:56:26.264Z,8.3
2018-04-17T05:57:28.632Z,8.4
2018-04-17T05:58:31.030Z,8.4
2018-04-17T05:59:33.711Z,8.5
2018-04-17T06:00:36.095Z,8.5
2018-04-17T06:01:38.763Z,8.5
2018-04-17T06:02:41.427Z,8.6
2018-04-17T06:03:44.091Z,8.6
2018-04-17T06:04:46.469Z,8.6
2018-04-17T06:05:49.144Z,8.7
2018-04-17T06:06:51.526Z,8.7
2018-04-17T06:07:53.891Z,8.7
2018-04-17T06:08:56.565Z,8.8
2018-04-17T06:09:58.955Z,8.8
2018-04-17T06:11:01.334Z,8.8
2018-04-17T06:12:03.719Z,8.8
2018-04-17T06:13:06.103Z,8.9
2018-04-17T06:14:08.490Z,8.9
2018-04-17T06:15:11.161Z,9
2018-04-17T06:16:13.815Z,9
2018-04-17T06:17:16.190Z,9
2018-04-17T06:18:18.571Z,9.1
2018-04-17T06:19:20.955Z,9.2
2018-04-17T06:20:23.351Z,9.3
2018-04-17T06:21:25.743Z,9.3
2018-04-17T06:22:28.398Z,9.4
2018-04-17T06:23:30.851Z,9.4
2018-04-17T06:24:33.241Z,9.4
2018-04-17T06:25:35.648Z,9.5
2018-04-17T06:26:38.024Z,9.6
2018-04-17T06:27:40.697Z,9.6
2018-04-17T06:28:43.093Z,9.7
2018-04-17T06:29:45.488Z,9.6
2018-04-17T06:30:47.971Z,9.7
2018-04-17T06:31:50.338Z,9.7
2018-04-17T06:32:52.742Z,9.7
2018-04-17T06:33:55.165Z,9.7
2018-04-17T06:34:57.934Z,9.8
2018-04-17T06:36:00.601Z,9.8
2018-04-17T06:37:03.061Z,9.8
2018-04-17T06:38:05.444Z,9.8
2018-04-17T06:39:07.828Z,9.9
2018-04-17T06:40:10.211Z,9.9
2018-04-17T06:41:12.666Z,10
2018-04-17T06:42:15.029Z,10
2018-04-17T06:43:17.424Z,10
2018-04-17T06:44:20.472Z,10.1
2018-04-17T06:45:23.009Z,10.2
2018-04-17T06:46:25.376Z,10.2
2018-04-17T06:47:28.148Z,10.2
2018-04-17T06:48:30.866Z,10.2
2018-04-17T06:49:33.258Z,10.3
2018-04-17T06:50:35.638Z,10.3
2018-04-17T06:51:38.727Z,10.4
2018-04-17T06:52:42.305Z,10.3
2018-04-17T06:53:44.613Z,10.4
2018-04-17T06:54:46.990Z,10.5
2018-04-17T06:55:49.672Z,10.5
2018-04-17T06:56:52.056Z,10.6
2018-04-17T06:57:54.452Z,10.6
2018-04-17T06:58:57.121Z,10.6
2018-04-17T06:59:59.505Z,10.7
2018-04-17T07:01:01.886Z,10.8
2018-04-17T07:02:04.869Z,10.8
2018-04-17T07:03:07.245Z,10.8
2018-04-17T07:04:09.642Z,10.9
2018-04-17T07:05:12.754Z,10.9
2018-04-17T07:06:15.778Z,10.9
2018-04-17T07:07:18.172Z,10.9
2018-04-17T07:08:20.556Z,10.9
2018-04-17T07:09:22.944Z,11.1
2018-04-17T07:10:25.709Z,11.1
2018-04-17T07:11:28.099Z,11.1
2018-04-17T07:12:30.481Z,11.2
2018-04-17T07:13:32.866Z,11.2
2018-04-17T07:14:35.247Z,11.2
2018-04-17T07:15:37.630Z,11.2
2018-04-17T07:16:40.305Z,11.2
2018-04-17T07:17:42.687Z,11.3
2018-04-17T07:18:45.414Z,11.3
2018-04-17T07:19:48.342Z,11.3
2018-04-17T07:20:50.897Z,11.3
2018-04-17T07:21:53.630Z,11.4
2018-04-17T07:22:56.000Z,11.4
2018-04-17T07:23:58.714Z,11.4
2018-04-17T07:25:01.496Z,11.5
2018-04-17T07:26:04.739Z,11.6
2018-04-17T07:27:07.629Z,11.7
2018-04-17T07:28:10.402Z,11.8
2018-04-17T07:29:13.197Z,11.9
2018-04-17T07:30:16.190Z,11.8
2018-04-17T07:31:18.761Z,11.8
2018-04-17T07:32:21.136Z,11.9
2018-04-17T07:33:23.802Z,11.9
2018-04-17T07:34:26.191Z,11.9
2018-04-17T07:35:28.587Z,12
2018-04-17T07:36:30.967Z,12.1
2018-04-17T07:37:33.355Z,12.2
2018-04-17T07:38:35.736Z,12.2
2018-04-17T07:39:38.119Z,12.2
2018-04-17T07:40:40.494Z,12.3
2018-04-17T07:41:42.890Z,12.5
2018-04-17T07:42:45.274Z,12.5
2018-04-17T07:43:47.659Z,12.4
2018-04-17T07:44:50.608Z,12.5
2018-04-17T07:45:53.289Z,12.5
2018-04-17T07:46:55.962Z,12.5
2018-04-17T07:47:58.359Z,12.6
2018-04-17T07:49:00.734Z,12.6
2018-04-17T07:50:03.121Z,12.8
2018-04-17T07:51:06.076Z,12.9
2018-04-17T07:52:08.465Z,13
2018-04-17T07:53:11.133Z,13.1
2018-04-17T07:54:14.198Z,13.2
2018-04-17T07:55:16.689Z,13.2
2018-04-17T07:56:19.083Z,13.1
2018-04-17T07:57:21.464Z,13.3
2018-04-17T07:58:23.846Z,13.2
2018-04-17T07:59:26.240Z,13.2
2018-04-17T08:00:28.623Z,13.2
2018-04-17T08:01:31.000Z,13.3
2018-04-17T08:02:33.399Z,13.6
2018-04-17T08:03:35.788Z,13.6
2018-04-17T08:04:38.163Z,14
2018-04-17T08:05:40.555Z,14.1
2018-04-17T08:06:43.268Z,14.2
2018-04-17T08:07:45.650Z,14.1
2018-04-17T08:08:48.653Z,14.3
2018-04-17T08:09:51.317Z,14.4
2018-04-17T08:10:53.705Z,14.3
2018-04-17T08:11:56.531Z,14.6
2018-04-17T08:12:59.532Z,14.4
2018-04-17T08:14:02.140Z,14.3
2018-04-17T08:15:04.529Z,14.4
2018-04-17T08:16:07.049Z,14.6
2018-04-17T08:17:09.438Z,14.7
2018-04-17T08:18:11.826Z,14.6
2018-04-17T08:19:14.479Z,15
2018-04-17T08:20:16.876Z,15.1
2018-04-17T08:21:19.267Z,14.9
2018-04-17T08:22:21.655Z,15
2018-04-17T08:23:24.042Z,15.1
2018-04-17T08:24:26.723Z,15.1
2018-04-17T08:25:29.108Z,15.3
2018-04-17T08:26:31.895Z,15.4
2018-04-17T08:27:34.274Z,15.4
2018-04-17T08:28:37.047Z,15.2
2018-04-17T08:29:39.814Z,15.3
2018-04-17T08:30:42.209Z,15.4
2018-04-17T08:31:44.601Z,15.7
2018-04-17T08:32:47.284Z,15.7
2018-04-17T08:33:50.110Z,16
2018-04-17T08:34:52.501Z,15.9
2018-04-17T08:35:55.168Z,15.9
2018-04-17T08:36:57.550Z,15.8
2018-04-17T08:37:59.943Z,16
2018-04-17T08:39:02.996Z,16.1
2018-04-17T08:40:05.377Z,16
2018-04-17T08:41:07.770Z,16.1
2018-04-17T08:42:10.554Z,16.4
2018-04-17T08:43:12.938Z,16
2018-04-17T08:44:15.805Z,16.1
2018-04-17T08:45:18.474Z,16.3
2018-04-17T08:46:20.861Z,16.4
2018-04-17T08:47:23.268Z,16.3
2018-04-17T08:48:25.656Z,16.3
2018-04-17T08:49:28.055Z,16.4
2018-04-17T08:50:30.439Z,16.5
2018-04-17T08:51:32.828Z,16
2018-04-17T08:52:35.571Z,16.1
2018-04-17T08:53:37.956Z,16.1
2018-04-17T08:54:40.735Z,16.3
2018-04-17T08:55:43.123Z,16.5
2018-04-17T08:56:45.507Z,16.6
2018-04-17T08:57:47.907Z,17
2018-04-17T08:58:50.293Z,17.3
2018-04-17T08:59:52.674Z,17.1
2018-04-17T09:00:55.467Z,17
2018-04-17T09:01:58.497Z,16.9
2018-04-17T09:03:01.871Z,17.1
2018-04-17T09:04:04.562Z,16.7
2018-04-17T09:05:06.988Z,17
2018-04-17T09:06:09.670Z,17.4
2018-04-17T09:07:12.057Z,17
2018-04-17T09:08:14.444Z,17.2
2018-04-17T09:09:16.849Z,17.2
2018-04-17T09:10:19.564Z,17.2
2018-04-17T09:11:21.963Z,16.9
2018-04-17T09:12:24.798Z,17.4
2018-04-17T09:13:27.198Z,17.4
2018-04-17T09:14:29.585Z,17.4
2018-04-17T09:15:31.985Z,17.4
2018-04-17T09:16:34.367Z,17.7
2018-04-17T09:17:36.772Z,17.6
2018-04-17T09:18:39.459Z,17.4
2018-04-17T09:19:41.852Z,17.5
2018-04-17T09:20:44.561Z,17.6
2018-04-17T09:21:46.958Z,17.5
2018-04-17T09:22:49.632Z,18
2018-04-17T09:23:52.043Z,17.9
2018-04-17T09:24:54.426Z,18
2018-04-17T09:25:56.827Z,18
2018-04-17T09:26:59.229Z,18
2018-04-17T09:28:02.018Z,18
2018-04-17T09:29:04.411Z,18.1
2018-04-17T09:30:06.819Z,18.4
2018-04-17T09:31:09.489Z,18.5
2018-04-17T09:32:11.883Z,18.1
2018-04-17T09:33:15.338Z,18.6
2018-04-17T09:34:18.108Z,18.4
2018-04-17T09:35:20.501Z,17.8
2018-04-17T09:36:22.901Z,18
2018-04-17T09:37:25.592Z,17.7
2018-04-17T09:38:27.994Z,17.8
2018-04-17T09:39:30.395Z,17.6
2018-04-17T09:40:33.527Z,17.6
2018-04-17T09:41:36.299Z,17.6
2018-04-17T09:42:39.088Z,17.6
2018-04-17T09:43:41.764Z,17.6
2018-04-17T09:44:44.150Z,17.8
2018-04-17T09:45:46.552Z,17.7
2018-04-17T09:46:48.950Z,18
2018-04-17T09:47:51.345Z,17.9
2018-04-17T09:48:54.628Z,17.7
2018-04-17T09:49:57.085Z,17.9
2018-04-17T09:50:59.414Z,17.9
2018-04-17T09:52:01.824Z,18.2
2018-04-17T09:53:04.811Z,18
2018-04-17T09:54:07.756Z,17.8
2018-04-17T09:55:10.158Z,17.8
2018-04-17T09:56:13.250Z,18.2
2018-04-17T09:57:15.650Z,18.1
2018-04-17T09:58:18.370Z,18.5
2018-04-17T09:59:21.727Z,18.7
2018-04-17T10:00:24.119Z,18.4
2018-04-17T10:01:26.817Z,18
2018-04-17T10:02:29.771Z,18
2018-04-17T10:03:32.592Z,18
2018-04-17T10:04:35.273Z,17.3
2018-04-17T10:05:37.667Z,17.5
2018-04-17T10:06:40.337Z,17.6
2018-04-17T10:07:42.745Z,17.9
2018-04-17T10:08:45.201Z,17.9
2018-04-17T10:09:47.888Z,18.2
2018-04-17T10:10:50.320Z,18.3
2018-04-17T10:11:52.718Z,17.6
2018-04-17T10:12:55.499Z,17
2018-04-17T10:13:57.908Z,16.9
2018-04-17T10:15:00.284Z,17.1
2018-04-17T10:16:02.680Z,17.2
2018-04-17T10:17:05.082Z,17.5
2018-04-17T10:18:07.464Z,17.5
2018-04-17T10:19:10.144Z,17.5
2018-04-17T10:20:12.547Z,17.3
2018-04-17T10:21:14.940Z,17.2
2018-04-17T10:22:17.339Z,17.4
2018-04-17T10:23:20.017Z,17.3
2018-04-17T10:24:22.695Z,17.1
2018-04-17T10:25:25.102Z,17
2018-04-17T10:26:27.494Z,16.8
2018-04-17T10:27:29.882Z,16.8
2018-04-17T10:28:32.857Z,17
2018-04-17T10:29:35.533Z,17
2018-04-17T10:30:38.202Z,16.9
2018-04-17T10:31:40.588Z,16.9
2018-04-17T10:32:42.993Z,16.5
2018-04-17T10:33:45.391Z,16.5
2018-04-17T10:34:48.162Z,16.6
2018-04-17T10:35:50.560Z,16.5
2018-04-17T10:36:52.975Z,16.7
2018-04-17T10:37:55.361Z,16.7
2018-04-17T10:38:57.762Z,16.6
2018-04-17T10:40:00.142Z,16.5
2018-04-17T10:41:02.822Z,17
2018-04-17T10:42:05.515Z,17.1
2018-04-17T10:43:08.571Z,17
2018-04-17T10:44:10.963Z,16.9
2018-04-17T10:45:13.348Z,16.9
2018-04-17T10:46:15.742Z,16.7
2018-04-17T10:47:18.415Z,16.7
2018-04-17T10:48:21.092Z,16.8
2018-04-17T10:49:23.791Z,16.9
2018-04-17T10:50:26.475Z,16.7
2018-04-17T10:51:29.273Z,16.8
2018-04-17T10:52:31.671Z,16.6
2018-04-17T10:53:34.068Z,16.6
2018-04-17T10:54:36.747Z,16.8
2018-04-17T10:55:39.132Z,16.9
2018-04-17T10:56:41.527Z,16.8
2018-04-17T10:57:44.313Z,16.8
2018-04-17T10:58:46.994Z,16.7
2018-04-17T10:59:49.811Z,17.1
2018-04-17T11:00:52.500Z,17.6
2018-04-17T11:01:55.279Z,17.7
2018-04-17T11:02:57.681Z,17.7
2018-04-17T11:04:00.417Z,18.1
2018-04-17T11:05:02.755Z,17.9
2018-04-17T11:06:05.439Z,18.4
2018-04-17T11:07:08.117Z,18.2
2018-04-17T11:08:10.497Z,18
2018-04-17T11:09:13.169Z,17.5
2018-04-17T11:10:16.416Z,17.6
2018-04-17T11:11:18.808Z,17.3
2018-04-17T11:12:21.500Z,17.3
2018-04-17T11:13:23.889Z,17.2
2018-04-17T11:14:26.290Z,17.3
2018-04-17T11:15:28.977Z,17.4
2018-04-17T11:16:31.651Z,17.4
2018-04-17T11:17:34.043Z,17.9
2018-04-17T11:18:36.446Z,18.1
2018-04-17T11:19:38.842Z,18.1
2018-04-17T11:20:41.236Z,18
2018-04-17T11:21:43.912Z,18.2
2018-04-17T11:22:46.302Z,18.5
2018-04-17T11:23:48.692Z,18.5
2018-04-17T11:24:51.464Z,18.9
2018-04-17T11:25:53.853Z,18.9
2018-04-17T11:26:56.636Z,19.5
2018-04-17T11:27:59.645Z,19.2
2018-04-17T11:29:02.078Z,18.9
2018-04-17T11:30:04.486Z,18.7
2018-04-17T11:31:06.889Z,19.1
2018-04-17T11:32:09.328Z,18.7
2018-04-17T11:33:12.130Z,18.8
2018-04-17T11:34:14.544Z,18.8
2018-04-17T11:35:17.118Z,18.4
2018-04-17T11:36:19.643Z,18.4
2018-04-17T11:37:22.070Z,18
2018-04-17T11:38:24.459Z,18.2
2018-04-17T11:39:26.920Z,18.3
2018-04-17T11:40:29.312Z,18.5
2018-04-17T11:41:31.779Z,18.6
2018-04-17T11:42:34.178Z,18.5
2018-04-17T11:43:36.954Z,18.8
2018-04-17T11:44:39.345Z,18.8
2018-04-17T11:45:41.849Z,18.8
2018-04-17T11:46:44.245Z,18.6
2018-04-17T11:47:46.647Z,18.5
2018-04-17T11:48:49.044Z,18.6
2018-04-17T11:49:51.441Z,18.3
2018-04-17T11:50:53.832Z,18.3
2018-04-17T11:51:56.236Z,18.1
2018-04-17T11:52:58.629Z,18
2018-04-17T11:54:01.033Z,18.4
2018-04-17T11:55:03.711Z,18.6
2018-04-17T11:56:06.281Z,17.9
2018-04-17T11:57:08.688Z,17.8
2018-04-17T11:58:11.316Z,18.4
2018-04-17T11:59:13.998Z,18.5
2018-04-17T12:00:16.736Z,19
2018-04-17T12:01:19.127Z,19.3
2018-04-17T12:02:21.674Z,19.4
2018-04-17T12:03:23.999Z,19.6
2018-04-17T12:04:26.435Z,19.8
2018-04-17T12:05:29.122Z,19.7
2018-04-17T12:06:31.634Z,20
2018-04-17T12:07:34.437Z,19.9
2018-04-17T12:08:37.047Z,20.2
2018-04-17T12:10:09.724Z,19.7
2018-04-17T12:11:12.747Z,18.9
2018-04-17T12:12:15.195Z,18.5
2018-04-17T12:13:17.617Z,18.7
2018-04-17T12:14:21.088Z,18.7
2018-04-17T12:15:23.732Z,19.1
2018-04-17T12:16:26.259Z,19.7
2018-04-17T12:17:29.187Z,19.8
2018-04-17T12:18:31.821Z,19.7
2018-04-17T12:19:34.529Z,20
2018-04-17T12:20:37.220Z,20.1
2018-04-17T12:21:39.617Z,20.3
2018-04-17T12:22:42.751Z,19.8
2018-04-17T12:23:45.280Z,20.2
2018-04-17T12:24:48.114Z,20.3
2018-04-17T12:25:50.840Z,20
2018-04-17T12:26:54.193Z,20
2018-04-17T12:27:57.342Z,19.4
2018-04-17T12:28:59.889Z,20.1
2018-04-17T12:30:02.713Z,20.4
2018-04-17T12:31:05.122Z,20.5
2018-04-17T12:32:07.507Z,20.3
2018-04-17T12:33:09.911Z,20.2
2018-04-17T12:34:12.322Z,20
2018-04-17T12:35:14.725Z,20.2
2018-04-17T12:36:17.115Z,21.1
2018-04-17T12:37:19.813Z,20.8
2018-04-17T12:38:22.496Z,20.6
2018-04-17T12:39:24.900Z,20.7
2018-04-17T12:40:27.595Z,20.9
2018-04-17T12:41:29.986Z,21.1
2018-04-17T12:42:32.385Z,21.1
2018-04-17T12:43:34.800Z,21.4
2018-04-17T12:44:37.204Z,21.3
2018-04-17T12:45:39.603Z,21.1
2018-04-17T12:46:42.008Z,21.4
2018-04-17T12:47:44.411Z,21.5
2018-04-17T12:48:46.820Z,20.5
2018-04-17T12:49:49.234Z,20.4
2018-04-17T12:50:51.621Z,20.1
2018-04-17T12:51:54.412Z,20
2018-04-17T12:52:56.774Z,19.9
2018-04-17T12:53:59.171Z,19.8
2018-04-17T12:55:01.572Z,19.7
2018-04-17T12:56:04.655Z,20
2018-04-17T12:57:07.050Z,20.4
2018-04-17T12:58:09.458Z,20.7
2018-04-17T12:59:11.857Z,20.6
2018-04-17T13:00:14.260Z,20.8
2018-04-17T13:01:16.663Z,21
2018-04-17T13:02:19.068Z,21
2018-04-17T13:03:21.856Z,21
2018-04-17T13:04:24.246Z,21.3
2018-04-17T13:05:26.646Z,21.2
2018-04-17T13:06:29.042Z,20.9
2018-04-17T13:07:31.455Z,21.5
2018-04-17T13:08:33.848Z,21.1
2018-04-17T13:09:36.629Z,21.4
2018-04-17T13:10:39.067Z,21.3
2018-04-17T13:11:41.466Z,21.2
2018-04-17T13:12:43.866Z,21.2
2018-04-17T13:13:46.273Z,21.1
2018-04-17T13:14:48.660Z,21
2018-04-17T13:15:51.350Z,20.6
2018-04-17T13:16:53.749Z,21
2018-04-17T13:17:56.151Z,20.8
2018-04-17T13:18:58.556Z,20.3
2018-04-17T13:20:00.955Z,21
2018-04-17T13:21:03.355Z,21.1
2018-04-17T13:22:06.084Z,22.1
2018-04-17T13:23:08.758Z,22.2
2018-04-17T13:24:11.155Z,21.8
2018-04-17T13:25:13.556Z,21.9
2018-04-17T13:26:15.957Z,22
2018-04-17T13:27:18.362Z,21.5
2018-04-17T13:28:20.771Z,21.3
2018-04-17T13:29:23.452Z,21.1
2018-04-17T13:30:26.150Z,21.4
2018-04-17T13:31:28.842Z,21.4
2018-04-17T13:32:31.260Z,21
2018-04-17T13:33:33.648Z,20.6
2018-04-17T13:34:36.042Z,21
2018-04-17T13:35:38.724Z,21.8
2018-04-17T13:36:41.132Z,21.6
2018-04-17T13:37:43.541Z,21.3
2018-04-17T13:38:45.938Z,20.9
2018-04-17T13:39:48.337Z,21.4
2018-04-17T13:40:50.744Z,21.6
2018-04-17T13:41:53.536Z,21.2
2018-04-17T13:42:55.945Z,20.9
2018-04-17T13:43:58.348Z,21.2
2018-04-17T13:45:01.028Z,21.6
2018-04-17T13:46:03.439Z,21.5
2018-04-17T13:47:05.835Z,21.4
2018-04-17T13:48:08.247Z,21.2
2018-04-17T13:49:10.668Z,22
2018-04-17T13:50:13.069Z,22.4
2018-04-17T13:51:15.474Z,22
2018-04-17T13:52:17.879Z,22.1
2018-04-17T13:53:20.431Z,21.8
2018-04-17T13:54:22.834Z,20.9
2018-04-17T13:55:25.331Z,21.8
2018-04-17T13:56:28.435Z,21.2
2018-04-17T13:57:30.834Z,21.4
2018-04-17T13:58:33.245Z,21.6
2018-04-17T13:59:35.703Z,21.5
2018-04-17T14:00:38.103Z,21.8
2018-04-17T14:01:40.499Z,22
2018-04-17T14:02:42.904Z,21.6
2018-04-17T14:03:45.599Z,20.9
2018-04-17T14:04:48.491Z,20.3
2018-04-17T14:05:50.890Z,21.1
2018-04-17T14:06:53.833Z,21
2018-04-17T14:07:56.230Z,21.5
2018-04-17T14:08:58.642Z,21.7
2018-04-17T14:10:01.050Z,21.8
2018-04-17T14:11:03.479Z,21